Midkiff, West Virginia
Current Conditions -  °F | °C
As of 10:51 AM on Thursday 27 Nov 2014 (Local Time) from KHTS Reporting Station
Overcast Overcast  
Wind Chill: 27°   Ceiling: 2400
Heat Index: 34°   Visibility: 10mi
Dew Point: 25°   Wind: 8mph
Humidity: 70%   Direction: 300°WNW
Pressure: 30.21"   Gusts: NA
Location:  38.18°N, 82.18°W
Report Text: KHTS 271551Z 30007KT 260V330 10SM BKN024 OVC031 01/M04 A3021 RMK AO2 SLP237 T00111039
Loading
Personal Weather Stations






























Interactive Weather Map New forecast layout! Learn more

10-Day Weather Forecast

Advertisements
Track Severe Weather on mobile